Airfield :
LOGIN :

Register | Disclaimer

   EN    FR    IT 

 










Legend :    VFR   Marginal VFR   IFR   Intensive IFR   Very Intensive IFR
Visi :
Ceiling :
>= 8 km
>= 3000ft
5 to 8 km
1000 to 3000 ft
1500m to 5 km
500 to 1000 ft
800 to 1500m
200 to 500 ft
< 800m
< 200 ft
Symbols :   Thunderstorms  Fog  Heavy snow  Heavy precipitations  Wind > 20 kt
SIGMETs :     Misc.  Thunderstorms  Icing  Turbulence  Mountain Waves  Volcanic Ashes







- Airport Elevation : 1036 ft
- IATA code : ERF


EDDE - Erfurt

CURRENT METAR :
  • 241650Z 30011KT 9999 FEW035CB SCT060 BKN100 09/04 Q1031 NOSIG

EXPIRED METARs :
  • 241620Z 32014KT 9999 FEW027 FEW033CB SCT070 08/03 Q1030 NOSIG
  • 241550Z 31012KT 9999 -SHRA FEW026 FEW043CB BKN060 10/04 Q1030 NOSIG
  • 241520Z 32019KT 9999 FEW026 FEW048CB SCT078 11/04 Q1030 TEMPO 32015G25KT
  • 241450Z 30012KT 9999 FEW026 FEW048CB SCT078 12/03 Q1029 TEMPO 29015G25KT
  • 241420Z 28016KT 9999 VCSH FEW020 FEW040CB SCT050 12/04 Q1029 TEMPO 29015G25KT

TAF TAF EDDE
Valid from the 24 at 12:00 until the 25 at 12:00 UTC


241100Z 2412/2512 29015G25KT 9999 SCT030
PROB40
TEMPO 2412/2416 29020G40KT SHRA BKN020CB
BECMG 2416/2419 29008KT
No reported NOTAMs for that airfield.



MET'MAP, your aeronautical weather chart ! - Copyright ORBIFLY December 2007 - Disclaimer

ORBIFLY MET'MAP TEAM :

Programming & Development : Alexandra Zaïnal
Concept & Development : Baudouin d'Aumeries
Co-Development & Prog : Marc-Olivier Méhu
Technical & hardware support : Manuel Goepfert

Contact : metmap@orbifly.com




SOURCES & CREDITS :

   NOAA